Time;durP1;ratioP1;P1;durP2;ratioP2;P2;SDS_P1;SDS_P2;PMS_P1;PMS_P2;Temp;Humidity;BMP_temperature;BMP_pressure;BME280_temperature;BME280_humidity;BME280_pressure;Samples;Min_cycle;Max_cycle;Signal;HPM_P1;HPM_P2
2023/08/10 00:00:27;;;;;;;;;;;;;;;14.39;82.47;102032.09;5010263;28;1054;-72
2023/08/10 00:02:53;;;;;;;;;;;;;;;14.41;82.36;102038.06;5011053;28;1112;-72
2023/08/10 00:05:19;;;;;;;;;;;;;;;14.41;82.53;102042.44;5010371;28;1105;-72
2023/08/10 00:07:45;;;;;;;;;;;;;;;14.39;82.81;102044.31;5010224;28;1090;-72
2023/08/10 00:10:11;;;;;;;;;;;;;;;14.37;82.79;102041.00;5009918;28;1113;-73
2023/08/10 00:12:37;;;;;;;;;;;;;;;14.32;82.77;102044.81;5010880;28;1969;-73
2023/08/10 00:15:03;;;;;;;;;;;;;;;14.29;83.02;102037.22;4992019;28;1308;-73
2023/08/10 00:17:28;;;;;;;;;;;;;;;14.26;83.55;102050.50;5009939;28;1246;-72
2023/08/10 00:19:53;;;;;;;;;;;;;;;14.25;83.32;102038.41;5008892;28;1158;-72
2023/08/10 00:22:18;;;;;;;;;;;;;;;14.26;83.20;102044.47;4991166;28;1306;-73
2023/08/10 00:24:44;;;;;;;;;;;;;;;14.25;83.35;102032.38;5009225;28;1099;-72
2023/08/10 00:27:09;;;;;;;;;;;;;;;14.25;83.35;102041.03;5008248;28;1134;-72
2023/08/10 00:29:34;;;;;;;;;;;;;;;14.24;83.43;102036.75;5007948;28;1098;-75
2023/08/10 00:32:00;;;;;;;;;;;;;;;14.24;83.28;102031.53;5008480;28;1966;-73
2023/08/10 00:34:25;;;;;;;;;;;;;;;14.23;83.61;102034.28;4990778;28;1292;-72
2023/08/10 00:36:50;;;;;;;;;;;;;;;14.23;83.34;102040.31;5008421;28;1035;-72
2023/08/10 00:39:17;;;;;;;;;;;;;;;14.22;83.66;102038.66;5008675;28;1087;-72
2023/08/10 00:41:42;;;;;;;;;;;;;;;14.21;83.77;102047.41;4989712;28;1275;-73
2023/08/10 00:44:07;;;;;;;;;;;;;;;14.18;83.86;102042.44;5007601;28;1099;-73
2023/08/10 00:46:33;;;;;;;;;;;;;;;14.17;83.95;102040.81;5007358;28;1242;-73
2023/08/10 00:48:58;;;;;;;;;;;;;;;14.15;84.33;102037.47;4990391;28;1174;-73
2023/08/10 00:51:24;;;;;;;;;;;;;;;14.15;84.38;102042.69;4990469;28;1910;-73
2023/08/10 00:53:49;;;;;;;;;;;;;;;14.15;84.28;102036.63;5008473;28;1077;-72
2023/08/10 00:56:16;;;;;;;;;;;;;;;14.15;84.63;102036.63;5008251;28;1029;-73
2023/08/10 00:58:41;;;;;;;;;;;;;;;14.15;84.10;102037.47;5002874;28;1115;-73
2023/08/10 01:01:06;;;;;;;;;;;;;;;14.14;84.46;102035.81;4992216;28;1165;-72
2023/08/10 01:03:32;;;;;;;;;;;;;;;14.12;84.53;102032.50;5009576;28;1155;-73
2023/08/10 01:06:05;;;;;;;;;;;;;;;14.12;84.93;102037.72;5009561;28;1139;-72
2023/08/10 01:08:36;;;;;;;;;;;;;;;14.11;85.19;102038.66;5009146;28;1140;-73
2023/08/10 01:11:07;;;;;;;;;;;;;;;14.10;85.61;102034.38;5008990;28;1112;-72
2023/08/10 01:13:37;;;;;;;;;;;;;;;14.14;85.39;102035.81;5009104;28;1953;-73
2023/08/10 01:16:04;;;;;;;;;;;;;;;14.14;85.07;102041.03;5007871;28;1180;-73
2023/08/10 01:18:30;;;;;;;;;;;;;;;14.12;85.28;102042.09;5007971;28;1117;-72
2023/08/10 01:20:58;;;;;;;;;;;;;;;14.12;85.57;102036.88;5007871;28;1101;-72
2023/08/10 01:23:30;;;;;;;;;;;;;;;14.12;85.89;102037.72;4990440;28;1279;-73
2023/08/10 01:25:56;;;;;;;;;;;;;;;14.13;85.59;102044.59;5005880;28;1299;-72
2023/08/10 01:28:22;;;;;;;;;;;;;;;14.11;85.85;102040.41;5007255;28;1093;-73
2023/08/10 01:30:48;;;;;;;;;;;;;;;14.13;86.15;102033.31;4990325;28;1516;-72
2023/08/10 01:33:13;;;;;;;;;;;;;;;14.14;85.64;102035.81;4989770;28;1973;-73
2023/08/10 01:35:39;;;;;;;;;;;;;;;14.12;86.50;102040.31;5008013;28;1126;-73
2023/08/10 01:38:04;;;;;;;;;;;;;;;14.13;86.48;102043.75;5007105;28;1146;-72
2023/08/10 01:40:30;;;;;;;;;;;;;;;14.12;86.00;102042.09;5007129;28;1145;-74
2023/08/10 01:42:55;;;;;;;;;;;;;;;14.09;86.60;102045.75;5006460;28;1076;-72
2023/08/10 01:45:20;;;;;;;;;;;;;;;14.10;87.00;102047.41;5007465;28;1154;-73
2023/08/10 01:47:54;;;;;;;;;;;;;;;14.11;86.95;102049.09;5007673;28;1091;-72
2023/08/10 01:50:20;;;;;;;;;;;;;;;14.14;86.68;102051.47;5006606;28;1371;-72
2023/08/10 01:52:50;;;;;;;;;;;;;;;14.15;87.05;102053.13;5008321;28;1954;-72
2023/08/10 01:55:16;;;;;;;;;;;;;;;14.19;86.92;102048.50;4989638;28;1246;-72
2023/08/10 01:57:41;;;;;;;;;;;;;;;14.22;87.29;102043.88;5008991;28;945;-72
2023/08/10 02:00:07;;;;;;;;;;;;;;;14.23;87.03;102045.53;5009760;28;1192;-73
2023/08/10 02:02:32;;;;;;;;;;;;;;;14.24;87.02;102041.97;4991083;28;1331;-72
2023/08/10 02:04:58;;;;;;;;;;;;;;;14.24;87.27;102036.75;5000768;28;1179;-72
2023/08/10 02:07:24;;;;;;;;;;;;;;;14.26;87.19;102039.25;4998072;28;1161;-75
2023/08/10 02:09:49;;;;;;;;;;;;;;;14.24;86.84;102036.75;5008522;28;945;-73
2023/08/10 02:12:14;;;;;;;;;;;;;;;14.23;86.89;102040.31;5007029;28;1906;-72
2023/08/10 02:14:39;;;;;;;;;;;;;;;14.23;86.81;102035.09;4988869;28;1462;-72
2023/08/10 02:17:05;;;;;;;;;;;;;;;14.22;86.94;102027.38;4989445;28;1403;-72
2023/08/10 02:19:30;;;;;;;;;;;;;;;14.18;87.16;102037.22;4989929;28;1161;-74
2023/08/10 02:21:55;;;;;;;;;;;;;;;14.19;87.21;102025.84;5004313;28;1094;-73
2023/08/10 02:24:20;;;;;;;;;;;;;;;14.20;86.97;102027.50;5007506;28;1108;-72
2023/08/10 02:26:45;;;;;;;;;;;;;;;14.19;87.05;102033.66;5006916;28;1075;-74
2023/08/10 02:29:11;;;;;;;;;;;;;;;14.17;87.04;102029.53;5007437;28;1099;-72
2023/08/10 02:31:36;;;;;;;;;;;;;;;14.17;87.26;102035.59;5007289;28;1965;-74
2023/08/10 02:34:01;;;;;;;;;;;;;;;14.14;86.95;102030.59;4991361;28;1292;-72
2023/08/10 02:36:26;;;;;;;;;;;;;;;14.11;87.05;102036.06;5010550;28;1172;-72
2023/08/10 02:38:52;;;;;;;;;;;;;;;14.08;87.15;102041.50;4989319;28;1312;-72
2023/08/10 02:41:17;;;;;;;;;;;;;;;14.02;87.17;102041.97;4994572;28;1289;-72
2023/08/10 02:43:42;;;;;;;;;;;;;;;13.96;87.25;102048.50;5010622;28;1096;-74
2023/08/10 02:46:08;;;;;;;;;;;;;;;13.94;87.37;102060.00;5011175;28;1178;-72
2023/08/10 02:48:33;;;;;;;;;;;;;;;13.90;87.95;102054.16;5008402;28;934;-72
2023/08/10 02:50:59;;;;;;;;;;;;;;;13.85;87.48;102056.28;5010427;28;1126;-72
2023/08/10 02:53:24;;;;;;;;;;;;;;;13.80;87.98;102054.03;5009935;28;1973;-73
2023/08/10 02:55:49;;;;;;;;;;;;;;;13.77;88.02;102059.50;5009359;28;1107;-73
2023/08/10 02:58:14;;;;;;;;;;;;;;;13.79;88.19;102061.97;4993478;28;1172;-73
2023/08/10 03:00:41;;;;;;;;;;;;;;;13.81;88.12;102060.91;5011514;28;1107;-72
2023/08/10 03:03:06;;;;;;;;;;;;;;;13.84;88.23;102056.41;5011772;28;1116;-72
2023/08/10 03:05:31;;;;;;;;;;;;;;;13.86;88.29;102062.34;5011638;28;1076;-72
2023/08/10 03:07:57;;;;;;;;;;;;;;;13.85;88.31;102058.91;5010085;28;1132;-73
2023/08/10 03:10:22;;;;;;;;;;;;;;;13.84;88.54;102061.63;5011062;28;1042;-72
2023/08/10 03:12:47;;;;;;;;;;;;;;;13.81;88.64;102055.69;5008780;28;1977;-75
2023/08/10 03:15:12;;;;;;;;;;;;;;;13.81;88.80;102063.50;4993052;28;1129;-72
2023/08/10 03:17:39;;;;;;;;;;;;;;;13.84;88.90;102053.81;5008931;28;1025;-73
2023/08/10 03:20:12;;;;;;;;;;;;;;;13.85;88.99;102065.91;5009601;28;1020;-73
2023/08/10 03:22:37;;;;;;;;;;;;;;;13.81;89.12;102058.28;5009796;28;1088;-73
2023/08/10 03:25:02;;;;;;;;;;;;;;;13.80;89.13;102063.63;4992774;28;1256;-73
2023/08/10 03:27:28;;;;;;;;;;;;;;;13.81;88.86;102049.63;5009815;28;1163;-72
2023/08/10 03:29:53;;;;;;;;;;;;;;;13.82;89.08;102052.16;5010405;28;1149;-72
2023/08/10 03:32:18;;;;;;;;;;;;;;;13.84;88.82;102053.81;5010510;28;1910;-72
2023/08/10 03:34:43;;;;;;;;;;;;;;;13.78;89.55;102055.94;5009761;28;1136;-73
2023/08/10 03:37:08;;;;;;;;;;;;;;;13.80;89.57;102054.03;5010735;28;1106;-72
2023/08/10 03:39:33;;;;;;;;;;;;;;;13.84;89.49;102059.03;4993649;28;1211;-72
2023/08/10 03:41:59;;;;;;;;;;;;;;;13.85;89.33;102071.13;5011487;28;1091;-72
2023/08/10 03:44:24;;;;;;;;;;;;;;;13.86;88.90;102062.34;5009245;28;1107;-73
2023/08/10 03:46:53;;;;;;;;;;;;;;;13.81;89.05;102066.13;4990734;28;1239;-72
2023/08/10 03:49:19;;;;;;;;;;;;;;;13.77;89.68;102059.50;5009294;28;1162;-72
2023/08/10 03:51:44;;;;;;;;;;;;;;;13.73;89.61;102073.69;4991497;28;1906;-73
2023/08/10 03:54:10;;;;;;;;;;;;;;;13.71;89.50;102070.38;5009248;28;1091;-75
2023/08/10 03:56:37;;;;;;;;;;;;;;;13.69;89.69;102077.47;5008744;28;1134;-73
2023/08/10 03:59:03;;;;;;;;;;;;;;;13.65;89.98;102070.84;5009643;28;1151;-72
2023/08/10 04:01:29;;;;;;;;;;;;;;;13.64;90.20;102068.34;5010489;28;1031;-73
2023/08/10 04:03:54;;;;;;;;;;;;;;;13.61;90.47;102068.56;5008935;28;1135;-73
2023/08/10 04:06:19;;;;;;;;;;;;;;;13.63;90.22;102074.50;5008417;28;1102;-72
2023/08/10 04:08:44;;;;;;;;;;;;;;;13.66;90.39;102080.31;5008528;28;1160;-73
2023/08/10 04:11:09;;;;;;;;;;;;;;;13.68;90.58;102086.25;4991352;28;1205;-73
2023/08/10 04:13:35;;;;;;;;;;;;;;;13.70;90.05;102084.34;5008099;28;1887;-74
2023/08/10 04:16:00;;;;;;;;;;;;;;;13.70;90.05;102083.50;4990732;28;1428;-73
2023/08/10 04:18:25;;;;;;;;;;;;;;;13.69;90.30;102087.06;4990701;28;1185;-72
2023/08/10 04:20:51;;;;;;;;;;;;;;;13.70;90.27;102084.34;4990719;28;1361;-73
2023/08/10 04:23:16;;;;;;;;;;;;;;;13.70;90.31;102092.16;5009128;28;1069;-72
2023/08/10 04:25:41;;;;;;;;;;;;;;;13.69;90.41;102087.91;5009405;28;1096;-73
2023/08/10 04:28:07;;;;;;;;;;;;;;;13.67;91.12;102078.53;4990868;28;1482;-72
2023/08/10 04:30:32;;;;;;;;;;;;;;;13.67;90.84;102084.59;5009156;28;1080;-72
2023/08/10 04:32:57;;;;;;;;;;;;;;;13.68;90.79;102081.03;4992286;28;1906;-72
2023/08/10 04:35:23;;;;;;;;;;;;;;;13.71;90.77;102086.03;4992706;28;1192;-72
2023/08/10 04:37:53;;;;;;;;;;;;;;;13.72;90.77;102082.47;5009950;28;1077;-72
2023/08/10 04:40:18;;;;;;;;;;;;;;;13.69;91.10;102081.84;5010255;28;1134;-72
2023/08/10 04:42:44;;;;;;;;;;;;;;;13.68;91.00;102078.41;5010006;28;1053;-72
2023/08/10 04:45:09;;;;;;;;;;;;;;;13.70;91.25;102089.56;4992372;28;1174;-74
2023/08/10 04:47:35;;;;;;;;;;;;;;;13.72;91.08;102082.47;5009022;28;1101;-72
2023/08/10 04:50:00;;;;;;;;;;;;;;;13.74;90.77;102088.38;4991919;28;1141;-72
2023/08/10 04:52:25;;;;;;;;;;;;;;;13.74;90.70;102087.56;5009389;28;1969;-72
2023/08/10 04:54:50;;;;;;;;;;;;;;;13.70;90.97;102094.78;5007676;28;1279;-72
2023/08/10 04:57:16;;;;;;;;;;;;;;;13.72;90.97;102086.84;5008842;28;1095;-74
2023/08/10 04:59:42;;;;;;;;;;;;;;;13.73;90.99;102094.56;5007942;28;1304;-72
2023/08/10 05:02:08;;;;;;;;;;;;;;;13.74;91.05;102096.22;5008525;28;1150;-72
2023/08/10 05:04:34;;;;;;;;;;;;;;;13.76;90.97;102101.31;5007899;28;1122;-73
2023/08/10 05:06:59;;;;;;;;;;;;;;;13.76;90.92;102089.13;5008204;28;1142;-72
2023/08/10 05:09:24;;;;;;;;;;;;;;;13.77;91.01;102096.00;5008574;28;1086;-72
2023/08/10 05:11:50;;;;;;;;;;;;;;;13.77;91.20;102090.78;5005709;28;1959;-72
2023/08/10 05:14:15;;;;;;;;;;;;;;;13.78;91.14;102089.00;5002184;28;1132;-73
2023/08/10 05:16:40;;;;;;;;;;;;;;;13.78;91.12;102092.44;5007143;28;1093;-73
2023/08/10 05:19:05;;;;;;;;;;;;;;;13.81;91.16;102086.16;5008314;28;1096;-73
2023/08/10 05:21:30;;;;;;;;;;;;;;;13.81;91.22;102081.75;5008011;28;1159;-72
2023/08/10 05:23:56;;;;;;;;;;;;;;;13.82;91.44;102077.41;5007959;28;1124;-72
2023/08/10 05:26:21;;;;;;;;;;;;;;;13.85;91.25;102086.75;4989931;28;1312;-72
2023/08/10 05:28:46;;;;;;;;;;;;;;;13.85;91.29;102081.53;5008556;28;1226;-73
2023/08/10 05:31:11;;;;;;;;;;;;;;;13.88;91.18;102086.50;4992095;28;1181;-73
2023/08/10 05:33:36;;;;;;;;;;;;;;;13.89;91.35;102083.81;5009504;28;1906;-72
2023/08/10 05:36:02;;;;;;;;;;;;;;;13.90;91.47;102089.84;4991981;28;1265;-73
2023/08/10 05:38:27;;;;;;;;;;;;;;;13.92;91.50;102082.72;5009551;28;1305;-73
2023/08/10 05:40:52;;;;;;;;;;;;;;;13.92;91.18;102082.72;5009422;28;1093;-74
2023/08/10 05:43:17;;;;;;;;;;;;;;;13.92;91.47;102077.53;5009686;28;1166;-72
2023/08/10 05:45:43;;;;;;;;;;;;;;;13.92;91.64;102077.53;5008300;28;1121;-72
2023/08/10 05:48:11;;;;;;;;;;;;;;;13.98;91.71;102079.66;5007593;28;1075;-74
2023/08/10 05:50:37;;;;;;;;;;;;;;;14.01;91.72;102082.06;4989058;28;1203;-75
2023/08/10 05:53:03;;;;;;;;;;;;;;;14.06;91.81;102085.97;5007222;28;1899;-74
2023/08/10 05:55:28;;;;;;;;;;;;;;;14.12;91.92;102076.84;5005506;28;1079;-74
2023/08/10 05:57:54;;;;;;;;;;;;;;;14.18;91.99;102078.16;5005543;28;1049;-72
2023/08/10 06:00:21;;;;;;;;;;;;;;;14.23;92.14;102076.84;5007022;28;1197;-72
2023/08/10 06:02:46;;;;;;;;;;;;;;;14.30;91.88;102067.59;5005906;28;1034;-71
2023/08/10 06:05:12;;;;;;;;;;;;;;;14.37;92.22;102077.56;5008283;28;941;-73
2023/08/10 06:07:38;;;;;;;;;;;;;;;14.41;92.11;102076.38;5006793;28;1123;-72
2023/08/10 06:10:04;;;;;;;;;;;;;;;14.44;91.85;102078.72;5011201;28;968;-73
2023/08/10 06:12:30;;;;;;;;;;;;;;;14.49;92.08;102081.84;5004020;28;1902;-73
2023/08/10 06:14:55;;;;;;;;;;;;;;;14.54;92.19;102085.75;4991328;28;2396;-72
2023/08/10 06:17:20;;;;;;;;;;;;;;;14.61;92.09;102086.94;5009227;28;1138;-73
2023/08/10 06:19:52;;;;;;;;;;;;;;;14.68;92.23;102087.31;5009147;28;1014;-73
2023/08/10 06:22:17;;;;;;;;;;;;;;;14.75;91.83;102092.88;5009817;28;1104;-72
2023/08/10 06:24:42;;;;;;;;;;;;;;;14.81;91.99;102093.22;5009880;28;965;-72
2023/08/10 06:27:08;;;;;;;;;;;;;;;14.87;92.42;102097.94;5011720;28;1108;-72
2023/08/10 06:29:33;;;;;;;;;;;;;;;14.92;92.40;102094.97;5013003;28;1144;-72
2023/08/10 06:31:58;;;;;;;;;;;;;;;14.98;92.33;102093.66;4994796;28;1971;-73
2023/08/10 06:34:23;;;;;;;;;;;;;;;15.03;91.97;102086.28;5013182;28;1181;-72
2023/08/10 06:36:48;;;;;;;;;;;;;;;15.10;91.82;102087.44;5012507;28;1124;-72
2023/08/10 06:39:14;;;;;;;;;;;;;;;15.17;92.04;102088.59;5012706;28;1083;-72
2023/08/10 06:41:39;;;;;;;;;;;;;;;15.25;91.83;102086.19;5012735;28;1084;-72
2023/08/10 06:44:04;;;;;;;;;;;;;;;15.33;92.20;102089.00;5012013;28;1119;-73
2023/08/10 06:46:29;;;;;;;;;;;;;;;15.38;92.82;102086.84;5011197;28;1100;-72
2023/08/10 06:48:55;;;;;;;;;;;;;;;15.43;92.30;102093.50;5011104;28;1077;-72
2023/08/10 06:51:20;;;;;;;;;;;;;;;15.47;91.87;102089.66;5006062;28;1079;-73
2023/08/10 06:53:46;;;;;;;;;;;;;;;15.54;91.72;102085.56;5010000;28;1969;-72
2023/08/10 06:56:11;;;;;;;;;;;;;;;15.64;91.29;102086.50;5009557;28;1083;-73
2023/08/10 06:58:36;;;;;;;;;;;;;;;15.71;91.82;102077.19;5009794;28;1127;-72
2023/08/10 07:01:01;;;;;;;;;;;;;;;15.80;90.83;102081.66;4992418;28;1273;-73
2023/08/10 07:03:27;;;;;;;;;;;;;;;15.92;90.76;102085.88;5008803;28;1123;-73
2023/08/10 07:05:52;;;;;;;;;;;;;;;15.96;90.02;102081.22;5009671;28;1061;-73
2023/08/10 07:08:17;;;;;;;;;;;;;;;16.04;90.45;102086.63;4992094;28;1206;-73
2023/08/10 07:10:42;;;;;;;;;;;;;;;16.12;90.02;102076.34;4992291;28;1207;-72
2023/08/10 07:13:08;;;;;;;;;;;;;;;16.23;90.07;102083.28;5009403;28;1894;-73
2023/08/10 07:15:33;;;;;;;;;;;;;;;16.34;89.38;102085.78;5009704;28;1138;-73
2023/08/10 07:17:58;;;;;;;;;;;;;;;16.45;88.24;102080.44;5008674;28;1217;-73
2023/08/10 07:20:23;;;;;;;;;;;;;;;16.52;87.41;102077.31;4992446;28;1202;-73
2023/08/10 07:22:49;;;;;;;;;;;;;;;16.57;86.38;102077.72;5011630;28;1083;-72
2023/08/10 07:25:16;;;;;;;;;;;;;;;16.67;85.93;102078.59;5012102;28;1106;-73
2023/08/10 07:27:42;;;;;;;;;;;;;;;16.71;84.96;102077.41;4993511;28;1169;-72
2023/08/10 07:30:08;;;;;;;;;;;;;;;16.81;84.92;102083.50;5011440;28;1013;-73
2023/08/10 07:32:33;;;;;;;;;;;;;;;16.90;84.29;102073.97;5011675;28;1983;-73
2023/08/10 07:34:58;;;;;;;;;;;;;;;16.98;83.39;102080.22;4993240;28;1419;-73
2023/08/10 07:37:23;;;;;;;;;;;;;;;17.08;83.01;102074.13;5010458;28;1100;-72
2023/08/10 07:39:48;;;;;;;;;;;;;;;17.17;82.50;102073.31;5011008;28;1132;-72
2023/08/10 07:42:14;;;;;;;;;;;;;;;17.28;80.44;102073.19;4993295;28;1186;-72
2023/08/10 07:44:39;;;;;;;;;;;;;;;17.37;80.14;102077.56;4992596;28;1104;-73
2023/08/10 07:47:04;;;;;;;;;;;;;;;17.46;80.07;102079.38;5009777;28;1021;-73
2023/08/10 07:49:31;;;;;;;;;;;;;;;17.53;79.81;102080.47;4991637;28;1283;-73
2023/08/10 07:51:56;;;;;;;;;;;;;;;17.57;77.60;102081.03;5008836;28;1959;-73
2023/08/10 07:54:21;;;;;;;;;;;;;;;17.68;78.30;102082.66;5008200;28;1147;-73
2023/08/10 07:56:46;;;;;;;;;;;;;;;17.67;77.48;102086.28;4990931;28;1179;-73
2023/08/10 07:59:12;;;;;;;;;;;;;;;17.71;76.05;102085.00;4990817;28;1199;-72
2023/08/10 08:01:38;;;;;;;;;;;;;;;17.78;75.58;102089.59;5009459;28;1087;-73
2023/08/10 08:04:03;;;;;;;;;;;;;;;17.89;76.13;102090.38;5008830;28;1088;-72
2023/08/10 08:06:28;;;;;;;;;;;;;;;18.03;75.39;102088.13;5008288;28;1066;-73
2023/08/10 08:08:53;;;;;;;;;;;;;;;18.13;74.45;102082.03;5008666;28;1096;-73
2023/08/10 08:11:19;;;;;;;;;;;;;;;18.26;74.72;102082.53;5009095;28;1075;-73
2023/08/10 08:13:44;;;;;;;;;;;;;;;18.25;74.21;102101.88;5008723;28;1923;-73
2023/08/10 08:16:09;;;;;;;;;;;;;;;18.36;73.24;102091.19;5008133;28;1234;-73
2023/08/10 08:18:41;;;;;;;;;;;;;;;18.47;70.58;102088.38;5008367;28;972;-73
2023/08/10 08:21:07;;;;;;;;;;;;;;;18.60;71.63;102089.84;5019717;28;1193;-74
2023/08/10 08:23:32;;;;;;;;;;;;;;;18.69;71.75;102088.97;5008938;28;1102;-73
2023/08/10 08:25:57;;;;;;;;;;;;;;;18.77;71.54;102089.06;5008491;28;1169;-72
2023/08/10 08:28:23;;;;;;;;;;;;;;;18.86;70.68;102096.06;5008167;28;1169;-72
2023/08/10 08:30:51;;;;;;;;;;;;;;;18.99;71.12;102096.53;5007520;28;1118;-74
2023/08/10 08:33:16;;;;;;;;;;;;;;;19.03;70.18;102091.78;5006894;28;1957;-72
2023/08/10 08:35:45;;;;;;;;;;;;;;;19.12;69.82;102095.34;4991219;28;1183;-73
2023/08/10 08:38:11;;;;;;;;;;;;;;;19.23;69.16;102097.75;4991773;28;1112;-73
2023/08/10 08:40:36;;;;;;;;;;;;;;;19.31;68.90;102092.53;4991629;28;1112;-72
2023/08/10 08:43:03;;;;;;;;;;;;;;;19.38;68.61;102101.47;4992904;28;1155;-73
2023/08/10 08:45:28;;;;;;;;;;;;;;;19.40;68.02;102098.72;4985435;28;1228;-72
2023/08/10 08:47:54;;;;;;;;;;;;;;;19.43;68.34;102101.03;4991417;28;1089;-74
2023/08/10 08:50:19;;;;;;;;;;;;;;;19.58;68.10;102097.72;4987045;28;1067;-72
2023/08/10 08:52:45;;;;;;;;;;;;;;;19.73;67.77;102095.38;4993508;28;2008;-72
2023/08/10 08:55:11;;;;;;;;;;;;;;;19.82;67.33;102093.63;4994568;28;1069;-74
2023/08/10 08:57:37;;;;;;;;;;;;;;;19.86;66.75;102087.06;4995149;28;1079;-72
2023/08/10 09:00:03;;;;;;;;;;;;;;;19.88;67.08;102093.81;4978529;28;1421;-73
2023/08/10 09:02:28;;;;;;;;;;;;;;;19.85;66.95;102095.94;4998450;28;1019;-73
2023/08/10 09:04:59;;;;;;;;;;;;;;;19.98;66.97;102092.91;4996258;28;1069;-72
2023/08/10 09:07:24;;;;;;;;;;;;;;;20.03;66.73;102091.44;4999929;28;948;-73
2023/08/10 09:09:49;;;;;;;;;;;;;;;20.08;66.62;102091.81;4998107;28;1121;-73
2023/08/10 09:12:31;;;;;;;;;;;;;;;20.04;65.75;102092.28;5000803;28;1971;-73
2023/08/10 09:15:03;;;;;;;;;;;;;;;20.02;65.97;102089.81;5000196;28;1005;-73
2023/08/10 09:17:28;;;;;;;;;;;;;;;20.05;65.27;102094.75;5003896;28;1090;-73
2023/08/10 09:19:54;;;;;;;;;;;;;;;19.97;65.68;102092.06;5002546;28;1256;-73
2023/08/10 09:22:35;;;;;;;;;;;;;;;19.96;65.07;102087.78;5004816;28;1127;-73
2023/08/10 09:25:01;;;;;;;;;;;;;;;19.86;64.49;102084.44;5004051;28;1154;-72
2023/08/10 09:27:27;;;;;;;;;;;;;;;19.79;65.99;102083.41;5006801;28;1161;-74
2023/08/10 09:30:03;;;;;;;;;;;;;;;19.77;65.74;102095.88;5009862;28;988;-73
2023/08/10 09:32:28;;;;;;;;;;;;;;;19.72;65.62;102092.88;5003398;28;1902;-73
2023/08/10 09:34:53;;;;;;;;;;;;;;;19.71;65.96;102096.50;5008792;28;1079;-72
2023/08/10 09:37:19;;;;;;;;;;;;;;;19.73;65.73;102100.66;5022102;28;1229;-73
2023/08/10 09:39:45;;;;;;;;;;;;;;;19.70;65.31;102100.13;5007755;28;1171;-73
2023/08/10 09:42:10;;;;;;;;;;;;;;;19.71;66.27;102096.50;4989740;28;1193;-73
2023/08/10 09:44:49;;;;;;;;;;;;;;;19.74;65.88;102098.84;5011813;28;1009;-73
2023/08/10 09:47:14;;;;;;;;;;;;;;;19.78;65.90;102087.00;5010492;28;1143;-73
2023/08/10 09:49:54;;;;;;;;;;;;;;;19.84;65.83;102086.38;5011949;28;1154;-73
2023/08/10 09:52:20;;;;;;;;;;;;;;;19.90;65.34;102080.53;5010649;28;1902;-73
2023/08/10 09:54:45;;;;;;;;;;;;;;;19.85;65.73;102086.25;5011887;28;1084;-72
2023/08/10 09:57:11;;;;;;;;;;;;;;;19.85;65.35;102093.31;5011375;28;1084;-73
2023/08/10 09:59:36;;;;;;;;;;;;;;;19.85;65.13;102103.84;5011543;28;1052;-73
2023/08/10 10:02:02;;;;;;;;;;;;;;;19.84;64.90;102102.16;5011810;28;1084;-73
2023/08/10 10:04:28;;;;;;;;;;;;;;;19.90;64.00;102096.31;4993595;28;1213;-74
2023/08/10 10:06:54;;;;;;;;;;;;;;;19.90;64.35;102091.06;5010646;28;1162;-73
2023/08/10 10:09:20;;;;;;;;;;;;;;;19.89;65.06;102090.19;5011177;28;1159;-73
2023/08/10 10:11:46;;;;;;;;;;;;;;;19.92;64.75;102094.34;5012503;28;1957;-73
2023/08/10 10:14:11;;;;;;;;;;;;;;;19.96;65.23;102093.06;5012742;28;1104;-74
2023/08/10 10:16:36;;;;;;;;;;;;;;;20.00;64.59;102091.75;5012377;28;1067;-73
2023/08/10 10:19:02;;;;;;;;;;;;;;;20.01;64.98;102088.13;5012403;28;1085;-73
2023/08/10 10:21:28;;;;;;;;;;;;;;;20.04;64.49;102093.09;5012706;28;1150;-73
2023/08/10 10:23:58;;;;;;;;;;;;;;;20.04;64.71;102087.81;5012876;28;1099;-73
2023/08/10 10:26:24;;;;;;;;;;;;;;;20.04;64.13;102093.09;5012111;28;1159;-73
2023/08/10 10:29:05;;;;;;;;;;;;;;;20.04;64.42;102093.09;5012437;28;1067;-73
2023/08/10 10:31:31;;;;;;;;;;;;;;;20.03;64.59;102099.34;5006194;28;1068;-73
2023/08/10 10:33:56;;;;;;;;;;;;;;;20.09;64.57;102100.53;5012494;28;1965;-73
2023/08/10 10:36:21;;;;;;;;;;;;;;;20.17;64.97;102109.28;5010347;28;1092;-73
2023/08/10 10:38:47;;;;;;;;;;;;;;;20.26;64.06;102112.81;5011446;28;1071;-72
2023/08/10 10:41:14;;;;;;;;;;;;;;;20.29;64.00;102116.91;5010901;28;1192;-73
2023/08/10 10:43:39;;;;;;;;;;;;;;;20.26;64.26;102114.63;4992935;28;1169;-72
2023/08/10 10:46:04;;;;;;;;;;;;;;;20.23;63.82;102107.00;5010671;28;1012;-74
2023/08/10 10:48:34;;;;;;;;;;;;;;;20.23;64.37;102101.75;5009290;28;1068;-73
2023/08/10 10:51:04;;;;;;;;;;;;;;;20.26;64.21;102101.44;5011117;28;1093;-73
2023/08/10 10:53:29;;;;;;;;;;;;;;;20.29;63.79;102101.94;5010291;28;1898;-73
2023/08/10 10:55:54;;;;;;;;;;;;;;;20.33;63.76;102105.09;5009323;28;1120;-73
2023/08/10 10:58:20;;;;;;;;;;;;;;;20.43;63.49;102097.91;5009872;28;1197;-72
2023/08/10 11:00:45;;;;;;;;;;;;;;;20.55;63.46;102096.66;5010725;28;981;-73
2023/08/10 11:03:13;;;;;;;;;;;;;;;20.69;63.14;102101.28;5010167;28;1135;-73
2023/08/10 11:05:39;;;;;;;;;;;;;;;20.86;63.20;102102.16;5010375;28;1079;-73
2023/08/10 11:08:06;;;;;;;;;;;;;;;20.99;61.67;102099.06;5011852;28;1084;-73
2023/08/10 11:10:32;;;;;;;;;;;;;;;21.12;61.77;102104.69;5012026;28;1097;-73
2023/08/10 11:12:57;;;;;;;;;;;;;;;21.25;61.90;102088.38;4994293;28;1894;-73
2023/08/10 11:15:22;;;;;;;;;;;;;;;21.30;61.92;102095.81;5011928;28;1104;-73
2023/08/10 11:17:48;;;;;;;;;;;;;;;21.38;61.16;102093.16;5009768;28;1099;-73
2023/08/10 11:20:18;;;;;;;;;;;;;;;21.39;60.95;102089.53;5011793;28;1112;-72
2023/08/10 11:22:47;;;;;;;;;;;;;;;21.50;59.78;102097.13;5009197;28;1138;-73
2023/08/10 11:25:13;;;;;;;;;;;;;;;21.58;59.99;102094.50;5011827;28;1081;-73
2023/08/10 11:27:48;;;;;;;;;;;;;;;21.47;59.23;102098.28;5010825;28;1094;-73
2023/08/10 11:30:15;;;;;;;;;;;;;;;21.51;59.75;102088.25;5017776;28;1474;-73
2023/08/10 11:32:40;;;;;;;;;;;;;;;21.67;58.56;102088.19;4992048;28;2326;-74
2023/08/10 11:35:07;;;;;;;;;;;;;;;21.78;59.03;102083.56;5009790;28;991;-72
2023/08/10 11:37:33;;;;;;;;;;;;;;;21.87;59.05;102079.94;5009445;28;1053;-72
2023/08/10 11:40:06;;;;;;;;;;;;;;;21.99;58.18;102086.50;5009899;28;1162;-73
2023/08/10 11:42:36;;;;;;;;;;;;;;;22.01;58.17;102080.03;5009364;28;1112;-72
2023/08/10 11:45:05;;;;;;;;;;;;;;;22.13;56.72;102083.16;5009204;28;1103;-73
2023/08/10 11:47:40;;;;;;;;;;;;;;;21.93;57.02;102079.25;5008899;28;1105;-72
2023/08/10 11:50:08;;;;;;;;;;;;;;;21.99;57.74;102075.94;5009330;28;1091;-73
2023/08/10 11:52:33;;;;;;;;;;;;;;;22.12;57.36;102070.13;5008616;28;1898;-73
2023/08/10 11:54:58;;;;;;;;;;;;;;;22.07;55.88;102070.59;5008219;28;971;-73
2023/08/10 11:57:24;;;;;;;;;;;;;;;22.07;57.31;102073.25;5008296;28;1077;-73
2023/08/10 11:59:49;;;;;;;;;;;;;;;22.25;56.81;102065.97;5008921;28;1072;-74
2023/08/10 12:02:17;;;;;;;;;;;;;;;22.38;57.00;102067.22;5007777;28;1076;-73
2023/08/10 12:04:43;;;;;;;;;;;;;;;22.50;56.43;102063.19;5009335;28;1071;-72
2023/08/10 12:07:08;;;;;;;;;;;;;;;22.50;56.45;102063.19;5009077;28;1084;-73
2023/08/10 12:09:34;;;;;;;;;;;;;;;22.50;56.70;102063.19;5010087;28;1112;-72
2023/08/10 12:11:59;;;;;;;;;;;;;;;22.46;55.86;102068.00;5010269;28;1972;-73
2023/08/10 12:14:25;;;;;;;;;;;;;;;22.37;54.99;102065.59;5011064;28;1151;-73
2023/08/10 12:16:51;;;;;;;;;;;;;;;22.36;56.24;102058.63;5010417;28;1079;-73
2023/08/10 12:19:16;;;;;;;;;;;;;;;22.43;55.15;102063.06;5010709;28;1100;-73
2023/08/10 12:21:41;;;;;;;;;;;;;;;22.52;55.97;102074.41;5010428;28;1122;-73
2023/08/10 12:24:06;;;;;;;;;;;;;;;22.56;55.48;102057.22;5019976;28;1311;-73
2023/08/10 12:26:40;;;;;;;;;;;;;;;22.57;55.75;102056.22;5114832;27;1176;-70
2023/08/10 12:29:05;;;;;;;;;;;;;;;22.65;55.72;102055.31;5115792;28;1084;-71
2023/08/10 12:31:30;;;;;;;;;;;;;;;22.75;54.89;102059.41;5113480;28;1125;-72
2023/08/10 12:33:56;;;;;;;;;;;;;;;22.85;54.19;102056.53;5112089;28;1096;-71
2023/08/10 12:36:21;;;;;;;;;;;;;;;22.79;50.58;102052.75;5112959;28;1019;-71
2023/08/10 12:38:47;;;;;;;;;;;;;;;22.60;52.97;102053.22;5106695;28;1010;-71
2023/08/10 12:41:12;;;;;;;;;;;;;;;22.57;54.35;102048.28;5105433;28;1135;-71